Regal Star — ESCM — position and weather

sailwx.info

Track history (hours):
 
Tides and Currents Weather Stations Pressure Air Temp Water Temp Dewpoint Dewpoint Depression Visibility Wind Speed Wind Dir Waves Ship Positions

Regal Star

Last reported at 2017-Feb-23 02:22 UTC. Time now 2017-Feb-23 04:54 UTC.
Position N 59°28' E 021°58'.

Length 157 m; draft 6 m.

Type: Ship (hazmat cat C). MMSI: 276554000.

Date/timePositionNaut miles runAvg speedWind from/ knotsBaromVisibWave heightAir tempDewpointWater temp
2017-Feb-23 02:22N 59°28' E 021°58'1315.7
2017-Feb-23 01:34N 59°31' E 021°34'1615.6
2017-Feb-23 00:30N 59°36' E 021°03'8 0.3
2017-Feb-22 00:32N 59°29' E 021°12'1615.8
2017-Feb-21 23:33N 59°26' E 021°42'5 0.2
2017-Feb-21 01:17N 59°30' E 021°47'1415.5
2017-Feb-21 00:22N 59°34' E 021°20'8 0.2
2017-Feb-19 11:30N 59°31' E 021°36'1716.1
2017-Feb-19 10:29N 59°36' E 021°05'10 1.0
2017-Feb-19 00:33N 59°29' E 021°18'1514.4
2017-Feb-18 23:32N 59°25' E 021°46'18 0.8
2017-Feb-18 02:12N 59°35' E 022°16'1015.9
2017-Feb-18 01:33N 59°35' E 021°56'1615.9
2017-Feb-18 00:33N 59°34' E 021°24'55 1.2
2017-Feb-16 04:14N 59°23' E 023°10'1014.4
2017-Feb-16 03:33N 59°23' E 022°51'2214.7
2017-Feb-16 02:03N 59°26' E 022°08'815.6
2017-Feb-16 01:33N 59°29' E 021°53'1615.9
2017-Feb-16 00:33N 59°33' E 021°23'1716.0
2017-Feb-15 23:28N 59°38' E 020°50'3415.7
2017-Feb-15 21:18N 59°45' E 019°44'1216.3
2017-Feb-15 20:33N 59°46' E 019°20'9 8.2
2017-Feb-15 19:31N 59°43' E 019°04'0 0.0
2017-Feb-15 18:28N 59°43' E 019°04'0 0.0
2017-Feb-15 17:31N 59°43' E 019°04'0 0.0
2017-Feb-15 16:31N 59°43' E 019°04'0 0.0
2017-Feb-15 15:31N 59°43' E 019°04'0 0.0
2017-Feb-15 14:31N 59°43' E 019°04'0 0.0
2017-Feb-15 13:31N 59°43' E 019°04'0 0.0
2017-Feb-15 12:31N 59°43' E 019°04'0 0.0
2017-Feb-15 11:31N 59°43' E 019°04'0 0.0
2017-Feb-15 10:31N 59°43' E 019°04'0 0.0
2017-Feb-15 09:19N 59°43' E 019°04'0 0.0
2017-Feb-15 08:31N 59°43' E 019°04'0 0.0
2017-Feb-15 07:31N 59°43' E 019°04'0 0.0
2017-Feb-15 06:31N 59°43' E 019°04'0 0.0
2017-Feb-15 05:32N 59°43' E 019°04'1010.0
2017-Feb-15 04:34N 59°46' E 019°23'1212.1
2017-Feb-15 03:34N 59°43' E 019°46'4614.8
2017-Feb-15 00:29N 59°29' E 021°12'1415.7
2017-Feb-14 23:33N 59°26' E 021°40'5015.7
2017-Feb-14 20:21N 59°22' E 023°18'1316.0
2017-Feb-14 19:31N 59°22' E 023°44'57 3.2
2017-Feb-14 01:33N 59°29' E 021°53'1616.0
2017-Feb-14 00:33N 59°33' E 021°23'5315.7
2017-Feb-13 21:10N 59°45' E 019°40'1015.8
2017-Feb-13 20:34N 59°46' E 019°21'9 8.5
2017-Feb-13 19:29N 59°43' E 019°04'0 0.0
2017-Feb-13 18:32N 59°43' E 019°04'0 0.0
2017-Feb-13 17:32N 59°43' E 019°04'0 0.0
2017-Feb-13 16:32N 59°43' E 019°04'0 0.0
2017-Feb-13 15:32N 59°43' E 019°04'0 0.0
2017-Feb-13 14:32N 59°43' E 019°04'0 0.0
2017-Feb-13 13:32N 59°43' E 019°04'0 0.0
2017-Feb-13 12:32N 59°43' E 019°04'0 0.0
2017-Feb-13 11:32N 59°43' E 019°04'0 0.0
2017-Feb-13 10:32N 59°43' E 019°04'0 0.0
2017-Feb-13 09:32N 59°43' E 019°04'0 0.0
2017-Feb-13 08:32N 59°43' E 019°04'0 0.0
2017-Feb-13 07:29N 59°43' E 019°04'0 0.0
2017-Feb-13 06:32N 59°43' E 019°04'0 0.0
2017-Feb-13 05:32N 59°43' E 019°04'9 9.3
2017-Feb-13 04:33N 59°46' E 019°21'1515.2
2017-Feb-13 03:33N 59°43' E 019°51'  
Track history (hours):
 
Tides and Currents Weather Stations Pressure Air Temp Water Temp Dewpoint Dewpoint Depression Visibility Wind Speed Wind Dir Waves Ship Positions

Regal Star

Last reported at 2017-Feb-23 02:22 UTC. Time now 2017-Feb-23 04:54 UTC.
Position N 59°28' E 021°58'.

Length 157 m; draft 6 m.

Type: Ship (hazmat cat C). MMSI: 276554000.

Date/timePositionNaut miles runAvg speedWind from/ knotsBaromVisibWave heightAir tempDewpointWater temp
2017-Feb-23 02:22N 59°28' E 021°58'1315.7
2017-Feb-23 01:34N 59°31' E 021°34'1615.6
2017-Feb-23 00:30N 59°36' E 021°03'8 0.3
2017-Feb-22 00:32N 59°29' E 021°12'1615.8
2017-Feb-21 23:33N 59°26' E 021°42'5 0.2
2017-Feb-21 01:17N 59°30' E 021°47'1415.5
2017-Feb-21 00:22N 59°34' E 021°20'8 0.2
2017-Feb-19 11:30N 59°31' E 021°36'1716.1
2017-Feb-19 10:29N 59°36' E 021°05'10 1.0
2017-Feb-19 00:33N 59°29' E 021°18'1514.4
2017-Feb-18 23:32N 59°25' E 021°46'18 0.8
2017-Feb-18 02:12N 59°35' E 022°16'1015.9
2017-Feb-18 01:33N 59°35' E 021°56'1615.9
2017-Feb-18 00:33N 59°34' E 021°24'55 1.2
2017-Feb-16 04:14N 59°23' E 023°10'1014.4
2017-Feb-16 03:33N 59°23' E 022°51'2214.7
2017-Feb-16 02:03N 59°26' E 022°08'815.6
2017-Feb-16 01:33N 59°29' E 021°53'1615.9
2017-Feb-16 00:33N 59°33' E 021°23'1716.0
2017-Feb-15 23:28N 59°38' E 020°50'3415.7
2017-Feb-15 21:18N 59°45' E 019°44'1216.3
2017-Feb-15 20:33N 59°46' E 019°20'9 8.2
2017-Feb-15 19:31N 59°43' E 019°04'0 0.0
2017-Feb-15 18:28N 59°43' E 019°04'0 0.0
2017-Feb-15 17:31N 59°43' E 019°04'0 0.0
2017-Feb-15 16:31N 59°43' E 019°04'0 0.0
2017-Feb-15 15:31N 59°43' E 019°04'0 0.0
2017-Feb-15 14:31N 59°43' E 019°04'0 0.0
2017-Feb-15 13:31N 59°43' E 019°04'0 0.0
2017-Feb-15 12:31N 59°43' E 019°04'0 0.0
2017-Feb-15 11:31N 59°43' E 019°04'0 0.0
2017-Feb-15 10:31N 59°43' E 019°04'0 0.0
2017-Feb-15 09:19N 59°43' E 019°04'0 0.0
2017-Feb-15 08:31N 59°43' E 019°04'0 0.0
2017-Feb-15 07:31N 59°43' E 019°04'0 0.0
2017-Feb-15 06:31N 59°43' E 019°04'0 0.0
2017-Feb-15 05:32N 59°43' E 019°04'1010.0
2017-Feb-15 04:34N 59°46' E 019°23'1212.1
2017-Feb-15 03:34N 59°43' E 019°46'4614.8
2017-Feb-15 00:29N 59°29' E 021°12'1415.7
2017-Feb-14 23:33N 59°26' E 021°40'5015.7
2017-Feb-14 20:21N 59°22' E 023°18'1316.0
2017-Feb-14 19:31N 59°22' E 023°44'57 3.2
2017-Feb-14 01:33N 59°29' E 021°53'1616.0
2017-Feb-14 00:33N 59°33' E 021°23'5315.7
2017-Feb-13 21:10N 59°45' E 019°40'1015.8
2017-Feb-13 20:34N 59°46' E 019°21'9 8.5
2017-Feb-13 19:29N 59°43' E 019°04'0 0.0
2017-Feb-13 18:32N 59°43' E 019°04'0 0.0
2017-Feb-13 17:32N 59°43' E 019°04'0 0.0
2017-Feb-13 16:32N 59°43' E 019°04'0 0.0
2017-Feb-13 15:32N 59°43' E 019°04'0 0.0
2017-Feb-13 14:32N 59°43' E 019°04'0 0.0
2017-Feb-13 13:32N 59°43' E 019°04'0 0.0
2017-Feb-13 12:32N 59°43' E 019°04'0 0.0
2017-Feb-13 11:32N 59°43' E 019°04'0 0.0
2017-Feb-13 10:32N 59°43' E 019°04'0 0.0
2017-Feb-13 09:32N 59°43' E 019°04'0 0.0
2017-Feb-13 08:32N 59°43' E 019°04'0 0.0
2017-Feb-13 07:29N 59°43' E 019°04'0 0.0
2017-Feb-13 06:32N 59°43' E 019°04'0 0.0
2017-Feb-13 05:32N 59°43' E 019°04'9 9.3
2017-Feb-13 04:33N 59°46' E 019°21'1515.2
2017-Feb-13 03:33N 59°43' E 019°51'  

Dump ship's entire track history